Baltimore, Maryland
Traffic Map
Current Weather Conditions
Baltimore, Maryland
Overcast
Overcast
50°
Feels Like: 50°
Wind Chill: 50° Ceiling: 5000
Heat Index: 50° Visibility: 10mi
Dew Point: 34° Wind: 9mph
Humidity: 54% Direction: 120° (ESE)
Pressure: 30.13in Gusts: 0mph
Raw Report DataKBWI 302054Z 12008KT 10SM OVC050 10/01 A3013 RMK AO2 SLP202 T01000011 56023
Traffic Incident Summary
Active as of:
Severity:
Category:
InformationThere was an issue retrieving the traffic information for this location. Please try a different location or try again shortly.
Advertisements
Track Severe Weather on mobile